sensor_id;sensor_type;location;lat;lon;timestamp;temperature;humidity
12688;DHT22;6408;59.388;17.798;2023-03-01T00:01:07;2.00;99.90
12688;DHT22;6408;59.388;17.798;2023-03-01T00:03:37;1.90;99.90
12688;DHT22;6408;59.388;17.798;2023-03-01T00:06:06;1.80;99.90
12688;DHT22;6408;59.388;17.798;2023-03-01T00:08:34;1.70;99.90
12688;DHT22;6408;59.388;17.798;2023-03-01T00:11:03;1.60;99.90
12688;DHT22;6408;59.388;17.798;2023-03-01T00:13:34;1.60;99.90
12688;DHT22;6408;59.388;17.798;2023-03-01T00:16:03;1.60;99.90
12688;DHT22;6408;59.388;17.798;2023-03-01T00:18:30;1.60;99.90
12688;DHT22;6408;59.388;17.798;2023-03-01T00:21:00;1.60;99.90
12688;DHT22;6408;59.388;17.798;2023-03-01T00:23:27;1.60;99.90
12688;DHT22;6408;59.388;17.798;2023-03-01T00:25:55;1.60;99.90
12688;DHT22;6408;59.388;17.798;2023-03-01T00:28:23;1.60;99.90
12688;DHT22;6408;59.388;17.798;2023-03-01T00:30:51;1.60;99.90
12688;DHT22;6408;59.388;17.798;2023-03-01T00:33:18;1.60;99.90
12688;DHT22;6408;59.388;17.798;2023-03-01T00:35:46;1.60;99.90
12688;DHT22;6408;59.388;17.798;2023-03-01T00:38:15;1.50;99.90
12688;DHT22;6408;59.388;17.798;2023-03-01T00:40:43;1.40;99.90
12688;DHT22;6408;59.388;17.798;2023-03-01T00:43:10;1.40;99.90
12688;DHT22;6408;59.388;17.798;2023-03-01T00:45:38;1.30;99.90
12688;DHT22;6408;59.388;17.798;2023-03-01T00:48:06;1.30;99.90
12688;DHT22;6408;59.388;17.798;2023-03-01T00:50:33;1.30;99.90
12688;DHT22;6408;59.388;17.798;2023-03-01T00:53:01;1.30;99.90
12688;DHT22;6408;59.388;17.798;2023-03-01T00:55:30;1.30;99.90
12688;DHT22;6408;59.388;17.798;2023-03-01T00:57:58;1.40;99.90
12688;DHT22;6408;59.388;17.798;2023-03-01T01:00:26;1.40;99.90
12688;DHT22;6408;59.388;17.798;2023-03-01T01:02:54;1.20;99.90
12688;DHT22;6408;59.388;17.798;2023-03-01T01:05:22;1.20;99.90
12688;DHT22;6408;59.388;17.798;2023-03-01T01:07:49;1.10;99.90
12688;DHT22;6408;59.388;17.798;2023-03-01T01:10:17;1.10;99.90
12688;DHT22;6408;59.388;17.798;2023-03-01T01:12:46;1.10;99.90
12688;DHT22;6408;59.388;17.798;2023-03-01T01:15:14;1.10;99.90
12688;DHT22;6408;59.388;17.798;2023-03-01T01:17:42;1.00;99.90
12688;DHT22;6408;59.388;17.798;2023-03-01T01:20:11;0.90;99.90
12688;DHT22;6408;59.388;17.798;2023-03-01T01:22:39;0.90;99.90
12688;DHT22;6408;59.388;17.798;2023-03-01T01:25:07;0.80;99.90
12688;DHT22;6408;59.388;17.798;2023-03-01T01:27:35;0.70;99.90
12688;DHT22;6408;59.388;17.798;2023-03-01T01:30:06;0.70;99.90
12688;DHT22;6408;59.388;17.798;2023-03-01T01:32:34;0.70;99.90
12688;DHT22;6408;59.388;17.798;2023-03-01T01:35:01;0.80;99.90
12688;DHT22;6408;59.388;17.798;2023-03-01T01:37:29;0.90;99.90
12688;DHT22;6408;59.388;17.798;2023-03-01T01:39:58;0.90;99.90
12688;DHT22;6408;59.388;17.798;2023-03-01T01:42:27;0.80;99.90
12688;DHT22;6408;59.388;17.798;2023-03-01T01:48:02;0.70;99.90
12688;DHT22;6408;59.388;17.798;2023-03-01T01:50:34;0.70;99.90
12688;DHT22;6408;59.388;17.798;2023-03-01T01:53:10;0.70;99.90
12688;DHT22;6408;59.388;17.798;2023-03-01T01:55:43;0.70;99.90
12688;DHT22;6408;59.388;17.798;2023-03-01T01:58:15;0.70;99.90
12688;DHT22;6408;59.388;17.798;2023-03-01T02:00:43;0.60;99.90
12688;DHT22;6408;59.388;17.798;2023-03-01T02:03:14;0.60;99.90
12688;DHT22;6408;59.388;17.798;2023-03-01T02:05:47;0.60;99.90
12688;DHT22;6408;59.388;17.798;2023-03-01T02:08:19;0.60;99.90
12688;DHT22;6408;59.388;17.798;2023-03-01T02:10:49;0.50;99.90
12688;DHT22;6408;59.388;17.798;2023-03-01T02:13:17;0.50;99.90
12688;DHT22;6408;59.388;17.798;2023-03-01T02:15:45;0.40;99.90
12688;DHT22;6408;59.388;17.798;2023-03-01T02:18:17;0.40;99.90
12688;DHT22;6408;59.388;17.798;2023-03-01T02:20:55;0.40;99.90
12688;DHT22;6408;59.388;17.798;2023-03-01T02:23:27;0.50;99.90
12688;DHT22;6408;59.388;17.798;2023-03-01T02:26:00;0.50;99.90
12688;DHT22;6408;59.388;17.798;2023-03-01T02:28:33;0.40;99.90
12688;DHT22;6408;59.388;17.798;2023-03-01T02:31:03;0.40;99.90
12688;DHT22;6408;59.388;17.798;2023-03-01T02:33:48;0.40;99.90
12688;DHT22;6408;59.388;17.798;2023-03-01T02:36:19;0.30;99.90
12688;DHT22;6408;59.388;17.798;2023-03-01T02:38:48;0.30;99.90
12688;DHT22;6408;59.388;17.798;2023-03-01T02:41:18;0.30;99.90
12688;DHT22;6408;59.388;17.798;2023-03-01T02:43:48;0.30;99.90
12688;DHT22;6408;59.388;17.798;2023-03-01T02:46:18;0.30;99.90
12688;DHT22;6408;59.388;17.798;2023-03-01T02:48:49;0.30;99.90
12688;DHT22;6408;59.388;17.798;2023-03-01T02:51:38;0.30;99.90
12688;DHT22;6408;59.388;17.798;2023-03-01T02:54:20;0.30;99.90
12688;DHT22;6408;59.388;17.798;2023-03-01T02:56:50;0.30;99.90
12688;DHT22;6408;59.388;17.798;2023-03-01T02:59:22;0.30;99.90
12688;DHT22;6408;59.388;17.798;2023-03-01T03:01:51;0.40;99.90
12688;DHT22;6408;59.388;17.798;2023-03-01T03:04:19;0.40;99.90
12688;DHT22;6408;59.388;17.798;2023-03-01T03:06:49;0.30;99.90
12688;DHT22;6408;59.388;17.798;2023-03-01T03:09:17;0.30;99.90
12688;DHT22;6408;59.388;17.798;2023-03-01T03:11:45;0.30;99.90
12688;DHT22;6408;59.388;17.798;2023-03-01T03:14:14;0.30;99.90
12688;DHT22;6408;59.388;17.798;2023-03-01T03:16:46;0.30;99.90
12688;DHT22;6408;59.388;17.798;2023-03-01T03:19:14;0.30;99.90
12688;DHT22;6408;59.388;17.798;2023-03-01T03:21:42;0.20;99.90
12688;DHT22;6408;59.388;17.798;2023-03-01T03:24:10;0.30;99.90
12688;DHT22;6408;59.388;17.798;2023-03-01T03:26:38;0.30;99.90
12688;DHT22;6408;59.388;17.798;2023-03-01T03:29:05;0.30;99.90
12688;DHT22;6408;59.388;17.798;2023-03-01T03:31:34;0.20;99.90
12688;DHT22;6408;59.388;17.798;2023-03-01T03:34:03;0.30;99.90
12688;DHT22;6408;59.388;17.798;2023-03-01T03:36:30;0.30;99.90
12688;DHT22;6408;59.388;17.798;2023-03-01T03:38:58;0.30;99.90
12688;DHT22;6408;59.388;17.798;2023-03-01T03:41:26;0.20;99.90
12688;DHT22;6408;59.388;17.798;2023-03-01T03:43:53;0.20;99.90
12688;DHT22;6408;59.388;17.798;2023-03-01T03:46:21;0.20;99.90
12688;DHT22;6408;59.388;17.798;2023-03-01T03:48:48;0.10;99.90
12688;DHT22;6408;59.388;17.798;2023-03-01T03:51:18;0.10;99.90
12688;DHT22;6408;59.388;17.798;2023-03-01T03:53:48;0.10;99.90
12688;DHT22;6408;59.388;17.798;2023-03-01T03:56:15;0.10;99.90
12688;DHT22;6408;59.388;17.798;2023-03-01T03:58:43;0.10;99.90
12688;DHT22;6408;59.388;17.798;2023-03-01T04:01:13;0.10;99.90
12688;DHT22;6408;59.388;17.798;2023-03-01T04:03:41;0.10;99.90
12688;DHT22;6408;59.388;17.798;2023-03-01T04:06:13;0.10;99.90
12688;DHT22;6408;59.388;17.798;2023-03-01T04:08:43;0.00;99.90
12688;DHT22;6408;59.388;17.798;2023-03-01T04:11:11;0.00;99.90
12688;DHT22;6408;59.388;17.798;2023-03-01T04:13:55;0.00;99.90
12688;DHT22;6408;59.388;17.798;2023-03-01T04:16:24;0.00;99.90
12688;DHT22;6408;59.388;17.798;2023-03-01T04:19:05;0.00;99.90
12688;DHT22;6408;59.388;17.798;2023-03-01T04:21:32;0.00;99.90
12688;DHT22;6408;59.388;17.798;2023-03-01T04:24:03;-0.10;99.90
12688;DHT22;6408;59.388;17.798;2023-03-01T04:26:32;-0.10;99.90
12688;DHT22;6408;59.388;17.798;2023-03-01T04:29:00;0.00;99.90
12688;DHT22;6408;59.388;17.798;2023-03-01T04:31:27;0.00;99.90
12688;DHT22;6408;59.388;17.798;2023-03-01T04:33:55;-0.10;99.90
12688;DHT22;6408;59.388;17.798;2023-03-01T04:36:25;-0.10;99.90
12688;DHT22;6408;59.388;17.798;2023-03-01T04:38:53;0.00;99.90
12688;DHT22;6408;59.388;17.798;2023-03-01T04:41:24;-0.10;99.90
12688;DHT22;6408;59.388;17.798;2023-03-01T04:43:51;-0.10;99.90
12688;DHT22;6408;59.388;17.798;2023-03-01T04:46:20;-0.20;99.90
12688;DHT22;6408;59.388;17.798;2023-03-01T04:48:48;-0.20;99.90
12688;DHT22;6408;59.388;17.798;2023-03-01T04:51:15;-0.20;99.90
12688;DHT22;6408;59.388;17.798;2023-03-01T04:53:44;-0.20;99.90
12688;DHT22;6408;59.388;17.798;2023-03-01T04:56:12;-0.30;99.90
12688;DHT22;6408;59.388;17.798;2023-03-01T04:58:42;-0.30;99.90
12688;DHT22;6408;59.388;17.798;2023-03-01T05:01:12;-0.30;99.90
12688;DHT22;6408;59.388;17.798;2023-03-01T05:03:43;-0.30;99.90
12688;DHT22;6408;59.388;17.798;2023-03-01T05:06:11;-0.30;99.90
12688;DHT22;6408;59.388;17.798;2023-03-01T05:08:39;-0.30;99.90
12688;DHT22;6408;59.388;17.798;2023-03-01T05:11:07;-0.30;99.90
12688;DHT22;6408;59.388;17.798;2023-03-01T05:13:36;-0.30;99.90
12688;DHT22;6408;59.388;17.798;2023-03-01T05:16:06;-0.30;99.90
12688;DHT22;6408;59.388;17.798;2023-03-01T05:18:37;-0.30;99.90
12688;DHT22;6408;59.388;17.798;2023-03-01T05:21:06;-0.30;99.90
12688;DHT22;6408;59.388;17.798;2023-03-01T05:23:34;-0.40;99.90
12688;DHT22;6408;59.388;17.798;2023-03-01T05:26:03;-0.40;99.90
12688;DHT22;6408;59.388;17.798;2023-03-01T05:28:31;-0.40;99.90
12688;DHT22;6408;59.388;17.798;2023-03-01T05:30:59;-0.30;99.90
12688;DHT22;6408;59.388;17.798;2023-03-01T05:33:28;-0.40;99.90
12688;DHT22;6408;59.388;17.798;2023-03-01T05:35:59;-0.40;99.90
12688;DHT22;6408;59.388;17.798;2023-03-01T05:38:27;-0.50;99.90
12688;DHT22;6408;59.388;17.798;2023-03-01T05:40:54;-0.40;99.90
12688;DHT22;6408;59.388;17.798;2023-03-01T05:43:22;-0.50;99.90
12688;DHT22;6408;59.388;17.798;2023-03-01T05:45:50;-0.50;99.90
12688;DHT22;6408;59.388;17.798;2023-03-01T05:48:17;-0.50;99.90
12688;DHT22;6408;59.388;17.798;2023-03-01T05:50:47;-0.50;99.90
12688;DHT22;6408;59.388;17.798;2023-03-01T05:53:16;-0.50;99.90
12688;DHT22;6408;59.388;17.798;2023-03-01T05:55:44;-0.40;99.90
12688;DHT22;6408;59.388;17.798;2023-03-01T05:58:14;-0.40;99.90
12688;DHT22;6408;59.388;17.798;2023-03-01T06:00:43;-0.40;99.90
12688;DHT22;6408;59.388;17.798;2023-03-01T06:03:12;-0.30;99.90
12688;DHT22;6408;59.388;17.798;2023-03-01T06:05:41;-0.30;99.90
12688;DHT22;6408;59.388;17.798;2023-03-01T06:08:11;-0.20;99.90
12688;DHT22;6408;59.388;17.798;2023-03-01T06:10:39;-0.20;99.90
12688;DHT22;6408;59.388;17.798;2023-03-01T06:13:07;-0.20;99.90
12688;DHT22;6408;59.388;17.798;2023-03-01T06:15:34;-0.20;99.90
12688;DHT22;6408;59.388;17.798;2023-03-01T06:18:02;-0.10;99.90
12688;DHT22;6408;59.388;17.798;2023-03-01T06:20:30;0.00;99.90
12688;DHT22;6408;59.388;17.798;2023-03-01T06:22:58;0.10;99.90
12688;DHT22;6408;59.388;17.798;2023-03-01T06:25:28;0.10;99.90
12688;DHT22;6408;59.388;17.798;2023-03-01T06:27:55;0.20;99.90
12688;DHT22;6408;59.388;17.798;2023-03-01T06:30:24;0.30;99.90
12688;DHT22;6408;59.388;17.798;2023-03-01T06:32:53;0.20;99.90
12688;DHT22;6408;59.388;17.798;2023-03-01T06:35:26;0.20;99.90
12688;DHT22;6408;59.388;17.798;2023-03-01T06:37:57;0.20;99.90
12688;DHT22;6408;59.388;17.798;2023-03-01T06:40:27;0.30;99.90
12688;DHT22;6408;59.388;17.798;2023-03-01T06:42:57;0.30;99.90
12688;DHT22;6408;59.388;17.798;2023-03-01T06:45:24;0.40;99.90
12688;DHT22;6408;59.388;17.798;2023-03-01T06:47:52;0.40;99.90
12688;DHT22;6408;59.388;17.798;2023-03-01T06:50:20;0.50;99.90
12688;DHT22;6408;59.388;17.798;2023-03-01T06:52:47;0.50;99.90
12688;DHT22;6408;59.388;17.798;2023-03-01T06:55:15;0.60;99.90
12688;DHT22;6408;59.388;17.798;2023-03-01T06:57:45;0.60;99.90
12688;DHT22;6408;59.388;17.798;2023-03-01T07:00:13;0.60;99.90
12688;DHT22;6408;59.388;17.798;2023-03-01T07:02:41;0.60;99.90
12688;DHT22;6408;59.388;17.798;2023-03-01T07:05:09;0.60;99.90
12688;DHT22;6408;59.388;17.798;2023-03-01T07:07:36;0.70;99.90
12688;DHT22;6408;59.388;17.798;2023-03-01T07:10:05;0.80;99.90
12688;DHT22;6408;59.388;17.798;2023-03-01T07:12:33;1.50;99.90
12688;DHT22;6408;59.388;17.798;2023-03-01T07:15:03;1.70;99.90
12688;DHT22;6408;59.388;17.798;2023-03-01T07:17:30;1.60;99.90
12688;DHT22;6408;59.388;17.798;2023-03-01T07:19:58;1.40;99.90
12688;DHT22;6408;59.388;17.798;2023-03-01T07:22:25;1.30;99.90
12688;DHT22;6408;59.388;17.798;2023-03-01T07:24:53;1.20;99.90
12688;DHT22;6408;59.388;17.798;2023-03-01T07:27:20;1.10;99.90
12688;DHT22;6408;59.388;17.798;2023-03-01T07:29:48;1.10;99.90
12688;DHT22;6408;59.388;17.798;2023-03-01T07:32:18;1.10;99.90
12688;DHT22;6408;59.388;17.798;2023-03-01T07:34:45;1.00;99.90
12688;DHT22;6408;59.388;17.798;2023-03-01T07:37:13;1.10;99.90
12688;DHT22;6408;59.388;17.798;2023-03-01T07:39:41;1.00;99.90
12688;DHT22;6408;59.388;17.798;2023-03-01T07:42:08;1.00;99.90
12688;DHT22;6408;59.388;17.798;2023-03-01T07:44:36;1.10;99.90
12688;DHT22;6408;59.388;17.798;2023-03-01T07:47:04;1.20;99.90
12688;DHT22;6408;59.388;17.798;2023-03-01T07:49:33;1.30;99.90
12688;DHT22;6408;59.388;17.798;2023-03-01T07:52:01;1.30;99.90
12688;DHT22;6408;59.388;17.798;2023-03-01T07:54:29;1.30;99.90
12688;DHT22;6408;59.388;17.798;2023-03-01T07:56:56;1.40;99.90
12688;DHT22;6408;59.388;17.798;2023-03-01T07:59:24;1.50;99.90
12688;DHT22;6408;59.388;17.798;2023-03-01T08:01:54;1.50;99.90
12688;DHT22;6408;59.388;17.798;2023-03-01T08:04:22;1.60;99.90
12688;DHT22;6408;59.388;17.798;2023-03-01T08:06:52;1.60;99.90
12688;DHT22;6408;59.388;17.798;2023-03-01T08:09:20;1.60;99.90
12688;DHT22;6408;59.388;17.798;2023-03-01T08:11:48;1.70;99.90
12688;DHT22;6408;59.388;17.798;2023-03-01T08:14:15;1.80;99.90
12688;DHT22;6408;59.388;17.798;2023-03-01T08:16:43;1.80;99.90
12688;DHT22;6408;59.388;17.798;2023-03-01T08:19:11;1.90;99.90
12688;DHT22;6408;59.388;17.798;2023-03-01T08:21:39;2.00;99.90
12688;DHT22;6408;59.388;17.798;2023-03-01T08:24:09;2.20;99.90
12688;DHT22;6408;59.388;17.798;2023-03-01T08:26:37;2.40;99.90
12688;DHT22;6408;59.388;17.798;2023-03-01T08:29:05;4.20;99.90
12688;DHT22;6408;59.388;17.798;2023-03-01T08:31:34;5.60;99.90
12688;DHT22;6408;59.388;17.798;2023-03-01T08:34:04;6.10;99.90
12688;DHT22;6408;59.388;17.798;2023-03-01T08:36:34;7.10;99.90
12688;DHT22;6408;59.388;17.798;2023-03-01T08:39:03;8.00;99.90
12688;DHT22;6408;59.388;17.798;2023-03-01T08:41:32;8.20;99.90
12688;DHT22;6408;59.388;17.798;2023-03-01T08:44:00;8.40;99.90
12688;DHT22;6408;59.388;17.798;2023-03-01T08:46:28;8.20;99.90
12688;DHT22;6408;59.388;17.798;2023-03-01T08:48:56;8.50;99.90
12688;DHT22;6408;59.388;17.798;2023-03-01T08:51:25;8.40;99.90
12688;DHT22;6408;59.388;17.798;2023-03-01T08:53:53;8.20;99.90
12688;DHT22;6408;59.388;17.798;2023-03-01T08:56:20;7.60;99.90
12688;DHT22;6408;59.388;17.798;2023-03-01T08:58:50;6.40;99.90
12688;DHT22;6408;59.388;17.798;2023-03-01T09:01:18;6.20;99.90
12688;DHT22;6408;59.388;17.798;2023-03-01T09:03:46;6.20;99.90
12688;DHT22;6408;59.388;17.798;2023-03-01T09:06:15;7.40;99.90
12688;DHT22;6408;59.388;17.798;2023-03-01T09:08:44;9.30;99.90
12688;DHT22;6408;59.388;17.798;2023-03-01T09:11:14;8.70;99.90
12688;DHT22;6408;59.388;17.798;2023-03-01T09:13:42;8.10;99.90
12688;DHT22;6408;59.388;17.798;2023-03-01T09:16:13;8.50;99.90
12688;DHT22;6408;59.388;17.798;2023-03-01T09:18:42;10.50;99.90
12688;DHT22;6408;59.388;17.798;2023-03-01T09:21:12;12.30;99.90
12688;DHT22;6408;59.388;17.798;2023-03-01T09:23:42;14.00;99.90
12688;DHT22;6408;59.388;17.798;2023-03-01T09:26:12;15.40;99.90
12688;DHT22;6408;59.388;17.798;2023-03-01T09:28:40;17.00;99.90
12688;DHT22;6408;59.388;17.798;2023-03-01T09:31:08;18.20;99.90
12688;DHT22;6408;59.388;17.798;2023-03-01T09:33:40;19.40;99.90
12688;DHT22;6408;59.388;17.798;2023-03-01T09:36:12;19.40;99.90
12688;DHT22;6408;59.388;17.798;2023-03-01T09:38:40;20.40;99.90
12688;DHT22;6408;59.388;17.798;2023-03-01T09:41:18;21.40;99.90
12688;DHT22;6408;59.388;17.798;2023-03-01T09:43:50;20.90;99.90
12688;DHT22;6408;59.388;17.798;2023-03-01T09:46:21;20.70;99.90
12688;DHT22;6408;59.388;17.798;2023-03-01T09:48:54;20.60;99.90
12688;DHT22;6408;59.388;17.798;2023-03-01T09:51:26;21.00;99.90
12688;DHT22;6408;59.388;17.798;2023-03-01T09:53:54;21.60;99.90
12688;DHT22;6408;59.388;17.798;2023-03-01T09:56:28;21.30;99.90
12688;DHT22;6408;59.388;17.798;2023-03-01T09:59:02;22.30;99.80
12688;DHT22;6408;59.388;17.798;2023-03-01T10:01:35;22.50;98.90
12688;DHT22;6408;59.388;17.798;2023-03-01T10:04:28;22.50;98.50
12688;DHT22;6408;59.388;17.798;2023-03-01T10:07:23;22.80;98.00
12688;DHT22;6408;59.388;17.798;2023-03-01T10:09:54;23.10;97.80
12688;DHT22;6408;59.388;17.798;2023-03-01T10:12:25;23.70;96.50
12688;DHT22;6408;59.388;17.798;2023-03-01T10:14:59;23.40;96.30
12688;DHT22;6408;59.388;17.798;2023-03-01T10:17:33;23.40;95.70
12688;DHT22;6408;59.388;17.798;2023-03-01T10:20:16;23.10;95.60
12688;DHT22;6408;59.388;17.798;2023-03-01T10:22:45;23.20;95.60
12688;DHT22;6408;59.388;17.798;2023-03-01T10:25:21;22.70;95.10
12688;DHT22;6408;59.388;17.798;2023-03-01T10:27:52;22.40;94.80
12688;DHT22;6408;59.388;17.798;2023-03-01T10:30:22;23.20;94.90
12688;DHT22;6408;59.388;17.798;2023-03-01T10:32:57;23.30;94.60
12688;DHT22;6408;59.388;17.798;2023-03-01T10:35:28;23.70;94.60
12688;DHT22;6408;59.388;17.798;2023-03-01T10:37:58;24.10;93.60
12688;DHT22;6408;59.388;17.798;2023-03-01T10:40:25;23.70;93.80
12688;DHT22;6408;59.388;17.798;2023-03-01T10:42:53;23.40;93.40
12688;DHT22;6408;59.388;17.798;2023-03-01T10:45:31;23.10;93.60
12688;DHT22;6408;59.388;17.798;2023-03-01T10:48:11;23.70;93.20
12688;DHT22;6408;59.388;17.798;2023-03-01T10:50:43;23.70;92.80
12688;DHT22;6408;59.388;17.798;2023-03-01T10:53:23;23.20;92.50
12688;DHT22;6408;59.388;17.798;2023-03-01T10:56:03;23.20;92.80
12688;DHT22;6408;59.388;17.798;2023-03-01T10:58:32;23.00;92.60
12688;DHT22;6408;59.388;17.798;2023-03-01T11:01:02;23.80;92.50
12688;DHT22;6408;59.388;17.798;2023-03-01T11:03:32;24.10;92.40
12688;DHT22;6408;59.388;17.798;2023-03-01T11:06:22;24.50;91.90
12688;DHT22;6408;59.388;17.798;2023-03-01T11:08:50;24.10;91.80
12688;DHT22;6408;59.388;17.798;2023-03-01T11:11:26;23.90;91.50
12688;DHT22;6408;59.388;17.798;2023-03-01T11:13:58;23.00;92.10
12688;DHT22;6408;59.388;17.798;2023-03-01T11:16:34;22.90;91.90
12688;DHT22;6408;59.388;17.798;2023-03-01T11:19:15;22.90;92.10
12688;DHT22;6408;59.388;17.798;2023-03-01T11:21:55;22.60;92.10
12688;DHT22;6408;59.388;17.798;2023-03-01T11:24:29;22.70;92.30
12688;DHT22;6408;59.388;17.798;2023-03-01T11:27:01;23.20;91.90
12688;DHT22;6408;59.388;17.798;2023-03-01T11:29:34;23.50;91.30
12688;DHT22;6408;59.388;17.798;2023-03-01T11:32:06;23.60;91.80
12688;DHT22;6408;59.388;17.798;2023-03-01T11:34:40;24.20;91.30
12688;DHT22;6408;59.388;17.798;2023-03-01T11:37:19;24.60;91.00
12688;DHT22;6408;59.388;17.798;2023-03-01T11:39:56;24.70;90.80
12688;DHT22;6408;59.388;17.798;2023-03-01T11:42:32;24.20;91.00
12688;DHT22;6408;59.388;17.798;2023-03-01T11:45:08;23.30;90.60
12688;DHT22;6408;59.388;17.798;2023-03-01T11:50:42;23.70;91.10
12688;DHT22;6408;59.388;17.798;2023-03-01T11:53:34;23.90;90.80
12688;DHT22;6408;59.388;17.798;2023-03-01T11:56:18;23.30;91.30
12688;DHT22;6408;59.388;17.798;2023-03-01T11:59:00;23.90;90.90
12688;DHT22;6408;59.388;17.798;2023-03-01T12:01:48;22.90;91.20
12688;DHT22;6408;59.388;17.798;2023-03-01T12:04:38;22.70;91.00
12688;DHT22;6408;59.388;17.798;2023-03-01T12:07:17;22.30;91.10
12688;DHT22;6408;59.388;17.798;2023-03-01T12:12:58;22.50;91.20
12688;DHT22;6408;59.388;17.798;2023-03-01T12:16:02;22.30;91.20
12688;DHT22;6408;59.388;17.798;2023-03-01T12:19:07;22.60;90.90
12688;DHT22;6408;59.388;17.798;2023-03-01T12:21:46;22.20;91.40
12688;DHT22;6408;59.388;17.798;2023-03-01T12:24:35;22.10;91.50
12688;DHT22;6408;59.388;17.798;2023-03-01T12:27:19;22.00;91.30
12688;DHT22;6408;59.388;17.798;2023-03-01T12:29:54;20.90;91.90
12688;DHT22;6408;59.388;17.798;2023-03-01T12:32:39;20.40;92.00
12688;DHT22;6408;59.388;17.798;2023-03-01T12:35:25;19.60;92.40
12688;DHT22;6408;59.388;17.798;2023-03-01T12:38:00;19.00;92.90
12688;DHT22;6408;59.388;17.798;2023-03-01T12:40:58;17.90;93.40
12688;DHT22;6408;59.388;17.798;2023-03-01T12:43:41;16.30;95.00
12688;DHT22;6408;59.388;17.798;2023-03-01T12:46:23;15.10;96.20
12688;DHT22;6408;59.388;17.798;2023-03-01T12:48:59;13.90;97.30
12688;DHT22;6408;59.388;17.798;2023-03-01T12:51:31;12.90;98.30
12688;DHT22;6408;59.388;17.798;2023-03-01T12:54:07;12.10;99.10
12688;DHT22;6408;59.388;17.798;2023-03-01T12:56:39;11.50;99.90
12688;DHT22;6408;59.388;17.798;2023-03-01T12:59:13;11.10;99.90
12688;DHT22;6408;59.388;17.798;2023-03-01T13:01:49;11.00;99.90
12688;DHT22;6408;59.388;17.798;2023-03-01T13:04:27;10.50;99.90
12688;DHT22;6408;59.388;17.798;2023-03-01T13:09:49;10.00;99.90
12688;DHT22;6408;59.388;17.798;2023-03-01T13:13:00;9.80;99.90
12688;DHT22;6408;59.388;17.798;2023-03-01T13:15:33;9.90;99.90
12688;DHT22;6408;59.388;17.798;2023-03-01T13:18:04;9.80;99.90
12688;DHT22;6408;59.388;17.798;2023-03-01T13:20:53;9.60;99.90
12688;DHT22;6408;59.388;17.798;2023-03-01T13:23:29;9.50;99.90
12688;DHT22;6408;59.388;17.798;2023-03-01T13:26:03;9.50;99.90
12688;DHT22;6408;59.388;17.798;2023-03-01T13:28:52;9.40;99.90
12688;DHT22;6408;59.388;17.798;2023-03-01T13:34:45;9.30;99.90
12688;DHT22;6408;59.388;17.798;2023-03-01T13:37:23;9.30;99.90
12688;DHT22;6408;59.388;17.798;2023-03-01T13:39:52;9.20;99.90
12688;DHT22;6408;59.388;17.798;2023-03-01T13:42:41;9.30;99.90
12688;DHT22;6408;59.388;17.798;2023-03-01T13:45:25;9.10;99.90
12688;DHT22;6408;59.388;17.798;2023-03-01T13:48:01;9.00;99.90
12688;DHT22;6408;59.388;17.798;2023-03-01T13:50:35;8.90;99.90
12688;DHT22;6408;59.388;17.798;2023-03-01T13:53:06;9.00;99.90
12688;DHT22;6408;59.388;17.798;2023-03-01T13:55:38;9.00;99.90
12688;DHT22;6408;59.388;17.798;2023-03-01T13:58:16;8.90;99.90
12688;DHT22;6408;59.388;17.798;2023-03-01T14:00:46;8.90;99.90
12688;DHT22;6408;59.388;17.798;2023-03-01T14:03:15;8.90;99.90
12688;DHT22;6408;59.388;17.798;2023-03-01T14:06:03;8.80;99.90
12688;DHT22;6408;59.388;17.798;2023-03-01T14:08:33;8.80;99.90
12688;DHT22;6408;59.388;17.798;2023-03-01T14:11:33;8.80;99.90
12688;DHT22;6408;59.388;17.798;2023-03-01T14:14:20;8.80;99.90
12688;DHT22;6408;59.388;17.798;2023-03-01T14:16:56;9.00;99.90
12688;DHT22;6408;59.388;17.798;2023-03-01T14:19:27;9.20;99.90
12688;DHT22;6408;59.388;17.798;2023-03-01T14:22:05;9.20;99.90
12688;DHT22;6408;59.388;17.798;2023-03-01T14:24:40;9.10;99.90
12688;DHT22;6408;59.388;17.798;2023-03-01T14:27:12;9.10;99.90
12688;DHT22;6408;59.388;17.798;2023-03-01T14:29:40;9.00;99.90
12688;DHT22;6408;59.388;17.798;2023-03-01T14:32:15;8.90;99.90
12688;DHT22;6408;59.388;17.798;2023-03-01T14:34:47;8.80;99.90
12688;DHT22;6408;59.388;17.798;2023-03-01T14:37:24;8.80;99.90
12688;DHT22;6408;59.388;17.798;2023-03-01T14:39:53;8.70;99.90
12688;DHT22;6408;59.388;17.798;2023-03-01T14:42:22;8.70;99.90
12688;DHT22;6408;59.388;17.798;2023-03-01T14:44:52;8.70;99.90
12688;DHT22;6408;59.388;17.798;2023-03-01T14:47:26;8.70;99.90
12688;DHT22;6408;59.388;17.798;2023-03-01T14:50:01;8.70;99.90
12688;DHT22;6408;59.388;17.798;2023-03-01T14:52:48;8.60;99.90
12688;DHT22;6408;59.388;17.798;2023-03-01T14:55:19;8.60;99.90
12688;DHT22;6408;59.388;17.798;2023-03-01T14:57:48;8.50;99.90
12688;DHT22;6408;59.388;17.798;2023-03-01T15:00:19;8.40;99.90
12688;DHT22;6408;59.388;17.798;2023-03-01T15:02:48;8.30;99.90
12688;DHT22;6408;59.388;17.798;2023-03-01T15:05:22;8.40;99.90
12688;DHT22;6408;59.388;17.798;2023-03-01T15:07:54;8.30;99.90
12688;DHT22;6408;59.388;17.798;2023-03-01T15:10:24;8.30;99.90
12688;DHT22;6408;59.388;17.798;2023-03-01T15:12:52;8.30;99.90
12688;DHT22;6408;59.388;17.798;2023-03-01T15:15:38;8.20;99.90
12688;DHT22;6408;59.388;17.798;2023-03-01T15:18:17;8.10;99.90
12688;DHT22;6408;59.388;17.798;2023-03-01T15:20:45;8.00;99.90
12688;DHT22;6408;59.388;17.798;2023-03-01T15:23:36;8.00;99.90
12688;DHT22;6408;59.388;17.798;2023-03-01T15:26:04;8.00;99.90
12688;DHT22;6408;59.388;17.798;2023-03-01T15:28:33;8.00;99.90
12688;DHT22;6408;59.388;17.798;2023-03-01T15:31:04;7.90;99.90
12688;DHT22;6408;59.388;17.798;2023-03-01T15:33:37;7.80;99.90
12688;DHT22;6408;59.388;17.798;2023-03-01T15:36:36;7.80;99.90
12688;DHT22;6408;59.388;17.798;2023-03-01T15:39:37;7.70;99.90
12688;DHT22;6408;59.388;17.798;2023-03-01T15:42:07;7.50;99.90
12688;DHT22;6408;59.388;17.798;2023-03-01T15:44:35;7.50;99.90
12688;DHT22;6408;59.388;17.798;2023-03-01T15:47:21;7.50;99.90
12688;DHT22;6408;59.388;17.798;2023-03-01T15:49:52;7.40;99.90
12688;DHT22;6408;59.388;17.798;2023-03-01T15:52:22;7.30;99.90
12688;DHT22;6408;59.388;17.798;2023-03-01T15:54:58;7.20;99.90
12688;DHT22;6408;59.388;17.798;2023-03-01T15:57:26;7.20;99.90
12688;DHT22;6408;59.388;17.798;2023-03-01T15:59:54;7.10;99.90
12688;DHT22;6408;59.388;17.798;2023-03-01T16:02:23;7.10;99.90
12688;DHT22;6408;59.388;17.798;2023-03-01T16:04:51;7.10;99.90
12688;DHT22;6408;59.388;17.798;2023-03-01T16:07:19;7.10;99.90
12688;DHT22;6408;59.388;17.798;2023-03-01T16:09:46;7.00;99.90
12688;DHT22;6408;59.388;17.798;2023-03-01T16:12:16;7.00;99.90
12688;DHT22;6408;59.388;17.798;2023-03-01T16:14:46;7.00;99.90
12688;DHT22;6408;59.388;17.798;2023-03-01T16:17:14;6.90;99.90
12688;DHT22;6408;59.388;17.798;2023-03-01T16:19:41;6.90;99.90
12688;DHT22;6408;59.388;17.798;2023-03-01T16:22:10;6.80;99.90
12688;DHT22;6408;59.388;17.798;2023-03-01T16:24:37;6.80;99.90